La Cellera de Ter (La Selva)





Hora UTC 17:15
Temperatura 14.9 ºC
Humedad 80.0 %
Presión 1011.4 hPa
Pluja 0.0 mm
Velocidad viento 4.8 km/h
Dirección viento

Datos diarios 2024-04-16



Hora UTC (invierno +1h; verano +2h)
Temperatura (ºC) Humedad (%) Presión (hPa) Velocidad viento (km/h) Precipitación (mm)
Hora UTC Aire Humedad Presión Vel. Dir. Vel. Max Dir. Intent. máx 5 min.
00:05 12.1 79.0 1016.0 0.0 0.0 0.0
00:15 12.1 80.0 1015.8 0.0 6.4 0.0
00:25 11.9 79.0 1015.9 0.0 6.4 0.0
00:35 11.8 80.0 1015.8 1.6 6.4 0.0
00:45 11.8 80.0 1015.7 1.6 6.4 0.0
00:55 11.6 81.0 1015.6 1.6 6.4 0.0
01:05 11.6 81.0 1015.5 1.6 6.4 0.0
01:15 11.2 81.0 1015.3 0.0 6.4 0.0
01:25 11.1 83.0 1015.3 1.6 6.4 0.0
01:35 11.1 82.0 1015.2 3.2 6.4 0.0
01:45 10.9 82.0 1015.0 1.6 6.4 0.0
01:55 10.8 82.0 1015.1 0.0 6.4 0.0
02:05 10.7 83.0 1014.9 0.0 6.4 0.0
02:15 10.3 83.0 1014.7 0.0 6.4 0.0
02:25 10.1 85.0 1014.6 0.0 6.4 0.0
02:35 9.9 86.0 1014.5 0.0 6.4 0.0
02:45 10.0 86.0 1014.5 0.0 6.4 0.0
02:55 9.7 86.0 1014.5 0.0 6.4 0.0
03:05 9.6 87.0 1014.8 0.0 6.4 0.0
03:15 9.5 87.0 1014.7 1.6 6.4 0.0
03:25 9.2 88.0 1014.6 0.0 6.4 0.0
03:35 9.2 89.0 1014.4 0.0 6.4 0.0
03:45 9.5 89.0 1014.2 1.6 6.4 0.0
03:55 9.3 88.0 1014.2 1.6 6.4 0.0
04:05 9.0 88.0 1014.1 0.0 6.4 0.0
04:15 8.9 89.0 1014.0 0.0 6.4 0.0
04:25 8.8 89.0 1014.1 0.0 6.4 0.0
04:35 8.7 89.0 1013.8 1.6 6.4 0.0
04:45 8.8 90.0 1013.9 0.0 6.4 0.0
04:55 9.0 90.0 1014.0 1.6 6.4 0.0
05:05 9.0 89.0 1014.1 0.0 6.4 0.0
05:15 8.9 90.0 1014.4 0.0 6.4 0.0
05:25 8.9 89.0 1014.1 0.0 6.4 0.0
05:35 8.6 89.0 1013.7 1.6 6.4 0.0
05:45 8.8 90.0 1013.8 0.0 6.4 0.0
05:55 9.2 90.0 1013.8 0.0 6.4 0.0
06:05 9.4 89.0 1014.0 1.6 6.4 0.0
06:15 9.6 89.0 1014.1 3.2 6.4 0.0
06:25 10.1 89.0 1014.2 1.6 8.0 0.0
06:35 10.8 87.0 1013.9 1.6 8.0 0.0
06:45 10.9 86.0 1013.8 3.2 8.0 0.0
06:55 11.8 85.0 1013.8 1.6 8.0 0.0
07:05 12.3 82.0 1013.7 3.2 8.0 0.0
07:15 12.4 80.0 1013.7 3.2 8.0 0.0
07:25 12.4 81.0 1013.7 3.2 8.0 0.0
07:35 12.7 80.0 1013.7 1.6 8.0 0.0
07:45 12.9 80.0 1013.7 1.6 8.0 0.0
07:55 13.3 78.0 1013.9 1.6 8.0 0.0
08:05 13.8 76.0 1013.6 3.2 8.0 0.0
08:15 14.2 73.0 1013.6 4.8 9.7 0.0
08:25 14.6 70.0 1013.7 4.8 9.7 0.0
08:35 14.6 70.0 1013.5 6.4 11.3 0.0
08:45 14.8 71.0 1013.5 6.4 12.9 0.0
08:55 14.9 70.0 1013.4 8.0 14.5 0.0
09:05 15.2 69.0 1013.4 6.4 14.5 0.0
09:15 15.3 69.0 1013.5 6.4 14.5 0.0
09:25 15.4 67.0 1013.6 6.4 14.5 0.0
09:35 15.5 66.0 1013.6 6.4 14.5 0.0
09:45 15.4 63.0 1013.6 8.0 14.5 0.0
09:55 15.8 63.0 1013.4 6.4 14.5 0.0
10:05 16.3 61.0 1013.4 8.0 16.1 0.0
10:15 16.4 61.0 1013.4 9.7 16.1 0.0
10:25 16.7 61.0 1013.4 9.7 17.7 0.0
10:35 17.0 61.0 1013.3 8.0 17.7 0.0
10:45 17.3 64.0 1013.2 6.4 17.7 0.0
10:55 17.4 62.0 1013.2 8.0 17.7 0.0
11:05 18.2 61.0 1013.0 4.8 17.7 0.0
11:15 18.4 60.0 1012.8 6.4 17.7 0.0
11:25 18.9 60.0 1012.7 4.8 17.7 0.0
11:35 19.0 58.0 1012.5 6.4 17.7 0.0
11:45 18.6 60.0 1012.4 6.4 17.7 0.0
11:55 19.3 58.0 1012.2 4.8 17.7 0.0
12:05 19.1 59.0 1012.1 9.7 17.7 0.0
12:15 18.9 61.0 1012.1 8.0 17.7 0.0
12:25 19.1 61.0 1011.9 11.3 17.7 0.0
12:35 19.3 60.0 1011.8 8.0 17.7 0.0
12:45 18.3 64.0 1011.9 11.3 20.9 0.0
12:55 17.9 66.0 1012.0 9.7 20.9 0.0
13:05 17.8 68.0 1011.9 9.7 20.9 0.0
13:15 17.7 69.0 1011.7 9.7 20.9 0.0
13:25 17.2 70.0 1011.7 14.5 22.5 0.0
13:35 17.2 71.0 1011.7 9.7 22.5 0.0
13:45 17.1 71.0 1011.6 9.7 22.5 0.0
13:55 17.0 72.0 1011.6 8.0 22.5 0.0
14:05 16.8 72.0 1011.4 8.0 22.5 0.0
14:15 16.5 73.0 1011.5 9.7 22.5 0.0
14:25 16.2 74.0 1011.5 11.3 22.5 0.0
14:35 16.1 74.0 1011.6 8.0 22.5 0.0
14:45 15.7 75.0 1011.6 9.7 22.5 0.0
14:55 15.5 76.0 1011.6 6.4 22.5 0.0
15:05 15.4 76.0 1011.5 4.8 22.5 0.0
15:15 15.3 77.0 1011.5 6.4 22.5 0.0
15:25 15.1 78.0 1011.6 6.4 22.5 0.0
15:35 15.0 78.0 1011.3 8.0 22.5 0.0
15:45 15.0 79.0 1011.3 9.7 22.5 0.0
15:55 14.9 79.0 1011.2 9.7 22.5 0.0
16:05 15.1 79.0 1011.3 8.0 22.5 0.0
16:15 15.1 79.0 1011.2 6.4 22.5 0.0
16:25 15.1 79.0 1011.2 9.7 22.5 0.0
16:35 15.0 79.0 1011.3 11.3 22.5 0.0
16:45 15.0 79.0 1011.3 8.0 22.5 0.0
16:55 15.0 79.0 1011.3 6.4 22.5 0.0
17:05 14.9 80.0 1011.3 4.8 22.5 0.0
17:15 14.9 80.0 1011.4 4.8 22.5 0.0
Máxima 19.5 90.0 1016.0 14.5 22.5 0.0
Mínima 8.6 58.0 1011.2
Total 0.0